Time;durP1;ratioP1;P1;durP2;ratioP2;P2;SDS_P1;SDS_P2;PMS_P1;PMS_P2;Temp;Humidity;BMP_temperature;BMP_pressure;BME280_temperature;BME280_humidity;BME280_pressure;Samples;Min_cycle;Max_cycle;Signal;HPM_P1;HPM_P2
2022/11/28 00:00:43;;;;;;;16.48;8.27;;;;;;;;;;5059319;28;20053;-84
2022/11/28 00:03:11;;;;;;;16.77;8.10;;;;;;;;;;5057407;28;20041;-84
2022/11/28 00:05:38;;;;;;;26.17;7.95;;;;;;;;;;5060558;28;20045;-85
2022/11/28 00:08:13;;;;;;;15.45;7.63;;;;;;;;;;5055362;28;20113;-84
2022/11/28 00:10:43;;;;;;;21.25;7.70;;;;;;;;;;5055069;28;20057;-84
2022/11/28 00:13:10;;;;;;;18.38;7.38;;;;;;;;;;5059406;28;20049;-84
2022/11/28 00:15:40;;;;;;;13.55;7.57;;;;;;;;;;5059626;28;20081;-84
2022/11/28 00:18:09;;;;;;;14.38;7.20;;;;;;;;;;5058508;28;20135;-84
2022/11/28 00:20:36;;;;;;;15.65;6.63;;;;;;;;;;5059526;28;20049;-84
2022/11/28 00:23:05;;;;;;;17.02;7.60;;;;;;;;;;5064278;28;20055;-84
2022/11/28 00:25:33;;;;;;;15.00;7.50;;;;;;;;;;5059873;28;20050;-84
2022/11/28 00:28:01;;;;;;;16.40;7.70;;;;;;;;;;5064896;28;20088;-84
2022/11/28 00:30:29;;;;;;;20.88;7.82;;;;;;;;;;5062837;28;20037;-84
2022/11/28 00:32:58;;;;;;;21.40;7.30;;;;;;;;;;5072799;28;20065;-85
2022/11/28 00:35:26;;;;;;;15.25;6.97;;;;;;;;;;5058403;28;20715;-84
2022/11/28 00:37:53;;;;;;;15.35;7.40;;;;;;;;;;5064709;28;20042;-84
2022/11/28 00:40:21;;;;;;;12.55;6.78;;;;;;;;;;5062699;28;20062;-84
2022/11/28 00:42:48;;;;;;;12.68;6.75;;;;;;;;;;5061305;28;20113;-84
2022/11/28 00:45:16;;;;;;;16.15;7.88;;;;;;;;;;5050603;28;20045;-84
2022/11/28 00:47:45;;;;;;;11.95;6.82;;;;;;;;;;5077578;28;20128;-84
2022/11/28 00:50:13;;;;;;;16.40;7.35;;;;;;;;;;5059851;28;20041;-84
2022/11/28 00:52:40;;;;;;;16.70;8.15;;;;;;;;;;5062476;28;20072;-84
2022/11/28 00:55:17;;;;;;;19.88;7.55;;;;;;;;;;5058514;28;20038;-84
2022/11/28 00:57:46;;;;;;;21.95;7.85;;;;;;;;;;5058026;28;20040;-84
2022/11/28 01:00:13;;;;;;;17.40;7.07;;;;;;;;;;5054243;28;20057;-84
2022/11/28 01:02:43;;;;;;;18.50;8.10;;;;;;;;;;5058903;28;20698;-84
2022/11/28 01:05:11;;;;;;;24.52;7.88;;;;;;;;;;5057339;28;20525;-84
2022/11/28 01:07:42;;;;;;;14.68;7.40;;;;;;;;;;5052123;28;20104;-84
2022/11/28 01:10:10;;;;;;;17.38;7.25;;;;;;;;;;5053867;28;20061;-84
2022/11/28 01:12:41;;;;;;;25.63;8.18;;;;;;;;;;5055141;28;20045;-84
2022/11/28 01:15:13;;;;;;;19.10;7.50;;;;;;;;;;5071947;28;20155;-84
2022/11/28 01:17:43;;;;;;;17.55;7.22;;;;;;;;;;5056835;28;20097;-84
2022/11/28 01:20:11;;;;;;;26.30;7.43;;;;;;;;;;5052015;28;20054;-84
2022/11/28 01:22:39;;;;;;;19.25;7.25;;;;;;;;;;5056413;28;20064;-84
2022/11/28 01:25:09;;;;;;;26.35;7.82;;;;;;;;;;5052959;28;20148;-84
2022/11/28 01:27:36;;;;;;;14.00;7.13;;;;;;;;;;5069295;28;20876;-84
2022/11/28 01:30:07;;;;;;;24.13;8.30;;;;;;;;;;5052255;28;20061;-84
2022/11/28 01:32:36;;;;;;;16.63;7.75;;;;;;;;;;5052437;28;20050;-84
2022/11/28 01:35:05;;;;;;;14.55;7.03;;;;;;;;;;5053833;28;20123;-84
2022/11/28 01:37:32;;;;;;;17.52;7.75;;;;;;;;;;5052888;28;20119;-84
2022/11/28 01:40:00;;;;;;;14.25;7.30;;;;;;;;;;5051551;28;20068;-84
2022/11/28 01:42:27;;;;;;;15.00;7.20;;;;;;;;;;5054106;28;20049;-84
2022/11/28 01:44:54;;;;;;;18.90;7.03;;;;;;;;;;5043019;28;20081;-84
2022/11/28 01:47:25;;;;;;;15.60;6.25;;;;;;;;;;5053637;28;20132;-84
2022/11/28 01:49:53;;;;;;;13.30;6.25;;;;;;;;;;5056947;28;20095;-84
2022/11/28 01:52:22;;;;;;;15.05;6.90;;;;;;;;;;5056581;28;20065;-84
2022/11/28 01:54:52;;;;;;;13.98;6.75;;;;;;;;;;5060868;28;20050;-84
2022/11/28 01:57:23;;;;;;;23.35;7.05;;;;;;;;;;5052667;28;20100;-84
2022/11/28 02:00:04;;;;;;;15.85;6.70;;;;;;;;;;5058190;28;20053;-84
2022/11/28 02:02:34;;;;;;;15.43;6.80;;;;;;;;;;5051102;28;20062;-84
2022/11/28 02:05:05;;;;;;;15.85;6.82;;;;;;;;;;5057169;28;20105;-84
2022/11/28 02:07:33;;;;;;;19.05;6.65;;;;;;;;;;5049491;28;20141;-84
2022/11/28 02:10:01;;;;;;;16.98;7.35;;;;;;;;;;5051365;28;20053;-84
2022/11/28 02:12:35;;;;;;;16.98;6.68;;;;;;;;;;5056368;28;20054;-84
2022/11/28 02:15:04;;;;;;;16.80;6.57;;;;;;;;;;5054705;28;20604;-84
2022/11/28 02:17:40;;;;;;;22.30;7.18;;;;;;;;;;5052761;28;20077;-84
2022/11/28 02:20:24;;;;;;;18.88;7.18;;;;;;;;;;5050146;28;20053;-84
2022/11/28 02:22:58;;;;;;;14.85;6.57;;;;;;;;;;5051918;28;20121;-84
2022/11/28 02:25:36;;;;;;;17.10;6.85;;;;;;;;;;5050841;28;20045;-84
2022/11/28 02:28:40;;;;;;;30.30;7.05;;;;;;;;;;5042190;28;20100;-84
2022/11/28 02:31:27;;;;;;;16.88;6.38;;;;;;;;;;5042641;28;20097;-84
2022/11/28 02:33:56;;;;;;;13.70;6.40;;;;;;;;;;5050086;28;20112;-84
2022/11/28 02:36:41;;;;;;;17.17;6.13;;;;;;;;;;5045158;28;20108;-84
2022/11/28 02:39:45;;;;;;;16.60;6.40;;;;;;;;;;5072934;28;20061;-84
2022/11/28 02:42:19;;;;;;;10.07;6.20;;;;;;;;;;5029502;28;20141;-84
2022/11/28 02:44:55;;;;;;;15.52;6.07;;;;;;;;;;5030048;28;20054;-84
2022/11/28 02:47:25;;;;;;;18.67;6.30;;;;;;;;;;5029102;28;20057;-84
2022/11/28 02:50:05;;;;;;;10.82;5.63;;;;;;;;;;5030314;28;20065;-84
2022/11/28 02:52:44;;;;;;;12.05;6.72;;;;;;;;;;5006337;28;20084;-84
2022/11/28 02:55:15;;;;;;;13.68;5.88;;;;;;;;;;5021360;28;20062;-84
2022/11/28 02:57:51;;;;;;;14.07;6.00;;;;;;;;;;5025448;28;20058;-84
2022/11/28 03:00:29;;;;;;;17.05;5.85;;;;;;;;;;5028436;28;20042;-84
2022/11/28 03:02:57;;;;;;;14.50;5.57;;;;;;;;;;5028335;28;20038;-82
2022/11/28 03:05:29;;;;;;;16.45;6.00;;;;;;;;;;5032215;28;20046;-81
2022/11/28 03:08:11;;;;;;;13.23;5.60;;;;;;;;;;5032081;28;20046;-82
2022/11/28 03:10:47;;;;;;;14.48;5.22;;;;;;;;;;5031123;28;20547;-82
2022/11/28 03:13:17;;;;;;;10.57;5.90;;;;;;;;;;5032859;28;20034;-81
2022/11/28 03:15:53;;;;;;;11.63;4.78;;;;;;;;;;5020322;28;20053;-82
2022/11/28 03:18:50;;;;;;;13.52;5.07;;;;;;;;;;5062003;28;20053;-83
2022/11/28 03:21:25;;;;;;;11.00;5.22;;;;;;;;;;5032956;28;20049;-83
2022/11/28 03:23:57;;;;;;;11.75;5.40;;;;;;;;;;5049402;28;20056;-84
2022/11/28 03:26:45;;;;;;;19.33;6.15;;;;;;;;;;5050424;28;20058;-83
2022/11/28 03:29:16;;;;;;;10.18;5.18;;;;;;;;;;5050888;28;20041;-83
2022/11/28 03:31:47;;;;;;;12.98;5.57;;;;;;;;;;5057332;28;20416;-83
2022/11/28 03:34:19;;;;;;;9.68;5.50;;;;;;;;;;5054525;28;20053;-84
2022/11/28 03:36:51;;;;;;;15.03;6.13;;;;;;;;;;5054615;28;20054;-84
2022/11/28 03:39:21;;;;;;;12.93;5.78;;;;;;;;;;5047036;28;20230;-84
2022/11/28 03:42:06;;;;;;;10.73;5.32;;;;;;;;;;5047813;28;20052;-84
2022/11/28 03:44:39;;;;;;;10.63;5.82;;;;;;;;;;5053512;28;20053;-84
2022/11/28 03:47:10;;;;;;;10.77;6.22;;;;;;;;;;5057622;28;20057;-84
2022/11/28 03:49:40;;;;;;;14.68;5.82;;;;;;;;;;5049407;28;20088;-84
2022/11/28 03:52:11;;;;;;;14.25;5.97;;;;;;;;;;5044065;28;20045;-84
2022/11/28 03:54:52;;;;;;;10.68;5.85;;;;;;;;;;5059428;28;20096;-84
2022/11/28 03:57:23;;;;;;;11.00;5.28;;;;;;;;;;5048917;28;20120;-84
2022/11/28 03:59:52;;;;;;;16.02;5.78;;;;;;;;;;5050596;28;20075;-84
2022/11/28 04:02:25;;;;;;;13.90;6.32;;;;;;;;;;5057613;28;20026;-84
2022/11/28 04:04:53;;;;;;;;;;;;;;;;;;5070366;28;20089;-83
2022/11/28 04:07:39;;;;;;;16.42;5.93;;;;;;;;;;5052376;28;42390;-84
2022/11/28 04:10:22;;;;;;;14.02;6.25;;;;;;;;;;5049475;28;20049;-84
2022/11/28 04:12:53;;;;;;;13.90;5.75;;;;;;;;;;5055109;28;20111;-84
2022/11/28 04:15:26;;;;;;;15.95;6.00;;;;;;;;;;5049373;28;20145;-84
2022/11/28 04:17:57;;;;;;;13.98;6.18;;;;;;;;;;5054803;28;20057;-84
2022/11/28 04:20:30;;;;;;;15.80;6.07;;;;;;;;;;5051142;28;20104;-84
2022/11/28 04:23:02;;;;;;;17.77;6.53;;;;;;;;;;5050668;28;20058;-84
2022/11/28 04:25:34;;;;;;;13.52;6.40;;;;;;;;;;5046711;28;20101;-84
2022/11/28 04:28:04;;;;;;;15.93;6.95;;;;;;;;;;5043422;28;20053;-84
2022/11/28 04:30:35;;;;;;;16.73;6.30;;;;;;;;;;5055423;28;20053;-84
2022/11/28 04:33:05;;;;;;;15.57;6.75;;;;;;;;;;5050722;28;20041;-84
2022/11/28 04:35:39;;;;;;;16.77;6.85;;;;;;;;;;5045574;28;20053;-84
2022/11/28 04:38:09;;;;;;;12.45;6.00;;;;;;;;;;5050242;28;20099;-84
2022/11/28 04:40:53;;;;;;;17.58;6.70;;;;;;;;;;5050753;28;20062;-84
2022/11/28 04:43:24;;;;;;;20.60;6.38;;;;;;;;;;5051999;28;20097;-84
2022/11/28 04:45:54;;;;;;;14.52;6.55;;;;;;;;;;5052150;28;20080;-84
2022/11/28 04:48:22;;;;;;;17.27;6.80;;;;;;;;;;5055795;28;20049;-84
2022/11/28 04:51:20;;;;;;;13.18;6.03;;;;;;;;;;5053224;28;20045;-84
2022/11/28 04:53:59;;;;;;;13.35;6.22;;;;;;;;;;5050924;28;20049;-84
2022/11/28 04:56:53;;;;;;;16.77;6.32;;;;;;;;;;5054240;28;20041;-84
2022/11/28 04:59:25;;;;;;;15.30;6.63;;;;;;;;;;5041272;28;20049;-84
2022/11/28 05:01:53;;;;;;;13.07;6.20;;;;;;;;;;5048927;28;20054;-84
2022/11/28 05:04:21;;;;;;;15.50;6.68;;;;;;;;;;5047097;28;20057;-84
2022/11/28 05:06:51;;;;;;;17.33;6.70;;;;;;;;;;5055763;28;20140;-84
2022/11/28 05:09:21;;;;;;;13.03;5.87;;;;;;;;;;5045929;28;20056;-84
2022/11/28 05:11:52;;;;;;;16.35;6.43;;;;;;;;;;5057762;28;20224;-84
2022/11/28 05:14:19;;;;;;;12.93;6.65;;;;;;;;;;5060989;28;20038;-84
2022/11/28 05:16:46;;;;;;;13.88;6.43;;;;;;;;;;5053264;28;20050;-84
2022/11/28 05:19:17;;;;;;;18.60;6.22;;;;;;;;;;5059068;28;20041;-84
2022/11/28 05:21:45;;;;;;;12.73;6.43;;;;;;;;;;5062044;28;20034;-84
2022/11/28 05:24:15;;;;;;;15.80;6.47;;;;;;;;;;5055274;28;20042;-84
2022/11/28 05:26:43;;;;;;;14.43;6.65;;;;;;;;;;5051808;28;20076;-84
2022/11/28 05:29:11;;;;;;;13.18;6.93;;;;;;;;;;5055669;28;20069;-84
2022/11/28 05:31:39;;;;;;;13.10;6.25;;;;;;;;;;5059744;28;20061;-84
2022/11/28 05:34:06;;;;;;;15.77;6.60;;;;;;;;;;5054199;28;20050;-84
2022/11/28 05:36:38;;;;;;;12.07;6.82;;;;;;;;;;5055464;28;20045;-84
2022/11/28 05:39:05;;;;;;;18.75;6.57;;;;;;;;;;5056260;28;20041;-84
2022/11/28 05:41:35;;;;;;;11.88;6.03;;;;;;;;;;5073178;28;20131;-84
2022/11/28 05:44:03;;;;;;;10.95;6.43;;;;;;;;;;5055567;28;20049;-84
2022/11/28 05:46:31;;;;;;;17.55;6.03;;;;;;;;;;5056447;28;20064;-84
2022/11/28 05:49:00;;;;;;;14.98;6.45;;;;;;;;;;5052994;28;20048;-84
2022/11/28 05:51:27;;;;;;;15.48;6.05;;;;;;;;;;5079799;28;20081;-84
2022/11/28 05:53:55;;;;;;;15.48;6.20;;;;;;;;;;5057977;28;20085;-84
2022/11/28 05:56:22;;;;;;;11.88;6.30;;;;;;;;;;5062977;28;20187;-84
2022/11/28 05:58:50;;;;;;;14.20;6.70;;;;;;;;;;5058286;28;20057;-84
2022/11/28 06:04:40;;;;;;;13.70;6.43;;;;;;;;;;5041090;28;20058;-84
2022/11/28 06:07:18;;;;;;;11.25;6.43;;;;;;;;;;5057675;28;20061;-84
2022/11/28 06:09:46;;;;;;;15.50;7.22;;;;;;;;;;5052530;28;20050;-84
2022/11/28 06:12:13;;;;;;;15.00;6.82;;;;;;;;;;5057740;28;20033;-84
2022/11/28 06:14:44;;;;;;;13.95;7.40;;;;;;;;;;5051172;28;20816;-84
2022/11/28 06:17:11;;;;;;;17.50;6.60;;;;;;;;;;5054925;28;20048;-84
2022/11/28 06:19:39;;;;;;;12.25;6.68;;;;;;;;;;5055841;28;20103;-84
2022/11/28 06:22:07;;;;;;;18.15;7.03;;;;;;;;;;5055710;28;20080;-84
2022/11/28 06:24:36;;;;;;;15.18;7.15;;;;;;;;;;5051562;28;20061;-84
2022/11/28 06:27:06;;;;;;;12.10;6.55;;;;;;;;;;5051484;28;20052;-84
2022/11/28 06:29:33;;;;;;;14.82;6.55;;;;;;;;;;5054911;28;20061;-84
2022/11/28 06:32:03;;;;;;;14.45;6.38;;;;;;;;;;5070764;28;20041;-84
2022/11/28 06:34:44;;;;;;;;;;;;;;;;;;5055240;28;20057;-84
2022/11/28 06:37:13;;;;;;;12.57;6.47;;;;;;;;;;5056352;28;44829;-84
2022/11/28 06:39:44;;;;;;;18.15;6.88;;;;;;;;;;5063637;28;20053;-84
2022/11/28 06:42:26;;;;;;;13.70;6.72;;;;;;;;;;5049564;28;20053;-84
2022/11/28 06:44:54;;;;;;;12.85;7.22;;;;;;;;;;5052330;28;20124;-84
2022/11/28 06:47:23;;;;;;;17.13;7.07;;;;;;;;;;5057860;28;20087;-84
2022/11/28 06:49:53;;;;;;;18.55;7.57;;;;;;;;;;5045296;28;20050;-84
2022/11/28 06:52:26;;;;;;;20.13;7.10;;;;;;;;;;5060465;28;20061;-85
2022/11/28 06:54:58;;;;;;;19.05;7.70;;;;;;;;;;5044678;28;20069;-84
2022/11/28 06:57:25;;;;;;;16.23;7.40;;;;;;;;;;5052589;28;20061;-84
2022/11/28 06:59:57;;;;;;;13.43;7.53;;;;;;;;;;5056635;28;20787;-84
2022/11/28 07:02:33;;;;;;;17.30;7.60;;;;;;;;;;5044158;28;20827;-84
2022/11/28 07:05:26;;;;;;;16.30;7.13;;;;;;;;;;5051766;28;20484;-85
2022/11/28 07:07:57;;;;;;;18.42;7.30;;;;;;;;;;5056465;28;20047;-84
2022/11/28 07:10:28;;;;;;;18.40;7.70;;;;;;;;;;5055952;28;20057;-84
2022/11/28 07:13:08;;;;;;;20.90;8.05;;;;;;;;;;5058547;28;20041;-84
2022/11/28 07:15:43;;;;;;;31.90;8.48;;;;;;;;;;5058587;28;20922;-85
2022/11/28 07:18:17;;;;;;;15.38;7.38;;;;;;;;;;5052298;28;20108;-85
2022/11/28 07:20:47;;;;;;;20.75;7.72;;;;;;;;;;5055868;28;20053;-85
2022/11/28 07:23:21;;;;;;;19.92;7.70;;;;;;;;;;5058156;28;20038;-84
2022/11/28 07:25:59;;;;;;;20.50;7.63;;;;;;;;;;5070874;28;20050;-84
2022/11/28 07:28:27;;;;;;;20.77;7.97;;;;;;;;;;5057075;28;20902;-84
2022/11/28 07:31:04;;;;;;;22.55;8.38;;;;;;;;;;5058708;28;20815;-84
2022/11/28 07:33:36;;;;;;;21.40;8.30;;;;;;;;;;5058281;28;20053;-84
2022/11/28 07:36:26;;;;;;;32.25;9.63;;;;;;;;;;5058616;28;20092;-85
2022/11/28 07:39:16;;;;;;;28.58;8.52;;;;;;;;;;5044695;28;20046;-84
2022/11/28 07:41:44;;;;;;;23.50;9.70;;;;;;;;;;5047109;28;20105;-84
2022/11/28 07:44:19;;;;;;;32.13;9.30;;;;;;;;;;5057884;28;20050;-84
2022/11/28 07:46:47;;;;;;;26.95;9.25;;;;;;;;;;5058936;28;20046;-84
2022/11/28 07:49:15;;;;;;;46.42;10.13;;;;;;;;;;5056703;28;20073;-84
2022/11/28 07:51:43;;;;;;;45.33;9.70;;;;;;;;;;5056220;28;20056;-85
2022/11/28 07:54:12;;;;;;;23.17;9.88;;;;;;;;;;5056662;28;20026;-84
2022/11/28 07:56:42;;;;;;;30.15;9.88;;;;;;;;;;5068877;28;20050;-84
2022/11/28 07:59:33;;;;;;;33.50;9.85;;;;;;;;;;5058740;28;20049;-85
2022/11/28 08:02:25;;;;;;;28.88;9.88;;;;;;;;;;5058083;28;20097;-85
2022/11/28 08:05:24;;;;;;;29.38;10.10;;;;;;;;;;5060168;28;20057;-84
2022/11/28 08:07:56;;;;;;;24.40;9.48;;;;;;;;;;5061662;28;20063;-84
2022/11/28 08:10:24;;;;;;;45.55;10.60;;;;;;;;;;5059033;28;20054;-85
2022/11/28 08:12:55;;;;;;;36.53;10.40;;;;;;;;;;5056850;28;20747;-85
2022/11/28 08:15:30;;;;;;;27.77;10.45;;;;;;;;;;5053415;28;20060;-84
2022/11/28 08:17:58;;;;;;;40.58;9.80;;;;;;;;;;5056158;28;20053;-85
2022/11/28 08:20:35;;;;;;;26.58;9.73;;;;;;;;;;5067148;28;20071;-85
2022/11/28 08:23:18;;;;;;;;;;;;;;;;;;5059076;28;20069;-85
2022/11/28 08:25:54;;;;;;;36.67;9.68;;;;;;;;;;5058907;28;43355;-84
2022/11/28 08:28:32;;;;;;;35.10;10.57;;;;;;;;;;5056968;28;20531;-84
2022/11/28 08:31:02;;;;;;;55.15;11.52;;;;;;;;;;5053465;28;20057;-85
2022/11/28 08:33:33;;;;;;;31.70;10.30;;;;;;;;;;5057303;28;20045;-84
2022/11/28 08:36:03;;;;;;;40.03;10.73;;;;;;;;;;5048694;28;20133;-84
2022/11/28 08:38:46;;;;;;;39.47;10.70;;;;;;;;;;5058121;28;20046;-85
2022/11/28 08:41:38;;;;;;;33.80;10.02;;;;;;;;;;5071617;28;20046;-85
2022/11/28 08:44:17;;;;;;;22.42;9.95;;;;;;;;;;5057448;28;20053;-85
2022/11/28 08:46:44;;;;;;;26.42;9.82;;;;;;;;;;5057325;28;20097;-85
2022/11/28 08:49:20;;;;;;;27.83;9.60;;;;;;;;;;5050862;28;20986;-85
2022/11/28 08:51:48;;;;;;;39.58;9.60;;;;;;;;;;5058966;28;20050;-85
2022/11/28 08:54:19;;;;;;;29.10;9.48;;;;;;;;;;5055743;28;20038;-85
2022/11/28 08:56:47;;;;;;;28.38;9.38;;;;;;;;;;5057051;28;20045;-84
2022/11/28 08:59:15;;;;;;;23.30;9.45;;;;;;;;;;5053849;28;20053;-85
2022/11/28 09:01:42;;;;;;;35.92;9.20;;;;;;;;;;5051976;28;20220;-85
2022/11/28 09:04:12;;;;;;;22.92;9.30;;;;;;;;;;5061138;28;20041;-85
2022/11/28 09:06:41;;;;;;;40.40;9.85;;;;;;;;;;5051295;28;20055;-85
2022/11/28 09:09:12;;;;;;;16.08;8.18;;;;;;;;;;5051867;28;20053;-85
2022/11/28 09:11:47;;;;;;;38.22;9.88;;;;;;;;;;5050135;28;20065;-85
2022/11/28 09:14:18;;;;;;;33.55;9.65;;;;;;;;;;5053534;28;20786;-85
2022/11/28 09:16:58;;;;;;;36.85;10.25;;;;;;;;;;5045315;28;20058;-85
2022/11/28 09:19:26;;;;;;;43.97;10.70;;;;;;;;;;5051392;28;20046;-85
2022/11/28 09:21:54;;;;;;;33.15;10.95;;;;;;;;;;5049476;28;20065;-86
2022/11/28 09:24:32;;;;;;;56.55;11.90;;;;;;;;;;5048919;28;20802;-85
2022/11/28 09:27:02;;;;;;;44.50;11.15;;;;;;;;;;5061568;28;20053;-85
2022/11/28 09:29:32;;;;;;;60.38;12.05;;;;;;;;;;5050078;28;20052;-85
2022/11/28 09:31:59;;;;;;;44.22;12.13;;;;;;;;;;5070492;28;20569;-85
2022/11/28 09:34:30;;;;;;;46.30;12.00;;;;;;;;;;5048348;28;20056;-85
2022/11/28 09:37:03;;;;;;;49.08;12.15;;;;;;;;;;5048989;28;20057;-85
2022/11/28 09:39:31;;;;;;;49.47;12.43;;;;;;;;;;5046122;28;20045;-85
2022/11/28 09:42:32;;;;;;;58.97;14.18;;;;;;;;;;5043693;28;20137;-85
2022/11/28 09:45:06;;;;;;;48.47;13.88;;;;;;;;;;5045717;28;20058;-85
2022/11/28 09:47:40;;;;;;;62.45;14.48;;;;;;;;;;5048858;28;20056;-85
2022/11/28 09:50:15;;;;;;;64.05;14.93;;;;;;;;;;5047707;28;20054;-85
2022/11/28 09:52:56;;;;;;;57.65;14.40;;;;;;;;;;5051517;28;20088;-85
2022/11/28 09:55:34;;;;;;;64.30;14.57;;;;;;;;;;5057138;28;20045;-85
2022/11/28 09:58:26;;;;;;;102.60;16.73;;;;;;;;;;5050905;28;20054;-85
2022/11/28 10:01:10;;;;;;;86.13;16.42;;;;;;;;;;5057600;28;20056;-85
2022/11/28 10:03:42;;;;;;;96.85;17.25;;;;;;;;;;5048910;28;20060;-85
2022/11/28 10:06:10;;;;;;;100.47;16.65;;;;;;;;;;5068102;28;20054;-85
2022/11/28 10:09:05;;;;;;;117.13;17.80;;;;;;;;;;5051124;28;20504;-84
2022/11/28 10:11:54;;;;;;;99.25;16.65;;;;;;;;;;5063811;28;20060;-85
2022/11/28 10:14:41;;;;;;;97.65;17.33;;;;;;;;;;5071626;28;20527;-84
2022/11/28 10:17:27;;;;;;;72.70;16.10;;;;;;;;;;5063406;28;20135;-84
2022/11/28 10:20:02;;;;;;;137.48;18.10;;;;;;;;;;5049724;28;20061;-85
2022/11/28 10:22:46;;;;;;;108.18;17.90;;;;;;;;;;5051466;28;20141;-85
2022/11/28 10:25:17;;;;;;;81.03;16.92;;;;;;;;;;5046493;28;20672;-85
2022/11/28 10:27:47;;;;;;;88.45;17.75;;;;;;;;;;5049490;28;20783;-85
2022/11/28 10:30:21;;;;;;;92.85;18.10;;;;;;;;;;5044620;28;20053;-85
2022/11/28 10:32:58;;;;;;;96.57;18.77;;;;;;;;;;5050023;28;20064;-85
2022/11/28 10:35:33;;;;;;;110.88;19.25;;;;;;;;;;5050158;28;20058;-85
2022/11/28 10:38:12;;;;;;;114.25;19.13;;;;;;;;;;5052022;28;20961;-84
2022/11/28 10:40:41;;;;;;;118.18;19.15;;;;;;;;;;5052007;28;20061;-84
2022/11/28 10:43:24;;;;;;;83.80;18.48;;;;;;;;;;5052372;28;20092;-84
2022/11/28 10:46:17;;;;;;;131.55;19.15;;;;;;;;;;5050197;28;20140;-84
2022/11/28 10:48:51;;;;;;;108.28;20.25;;;;;;;;;;5065963;28;20049;-85
2022/11/28 10:51:18;;;;;;;;;;;;;;;;;;5065463;28;20192;-84
2022/11/28 10:53:55;;;;;;;114.05;20.23;;;;;;;;;;5040774;28;42776;-84
2022/11/28 10:56:58;;;;;;;98.15;19.98;;;;;;;;;;5050051;28;20057;-84
2022/11/28 10:59:47;;;;;;;109.32;20.58;;;;;;;;;;5051580;28;20041;-84
2022/11/28 11:02:21;;;;;;;99.57;20.63;;;;;;;;;;5054128;28;20072;-84
2022/11/28 11:04:49;;;;;;;92.05;20.45;;;;;;;;;;5048380;28;20057;-85
2022/11/28 11:07:28;;;;;;;100.53;19.85;;;;;;;;;;5048103;28;20056;-84
2022/11/28 11:10:14;;;;;;;98.03;19.90;;;;;;;;;;5044271;28;20141;-85
2022/11/28 11:12:42;;;;;;;87.75;19.27;;;;;;;;;;5050795;28;20129;-84
2022/11/28 11:15:32;;;;;;;99.45;20.10;;;;;;;;;;5049741;28;20092;-84
2022/11/28 11:18:20;;;;;;;116.07;20.48;;;;;;;;;;5052593;28;20063;-84
2022/11/28 11:21:20;;;;;;;119.50;20.67;;;;;;;;;;5050740;28;20634;-84
2022/11/28 11:23:48;;;;;;;;;;;;;;;;;;5043307;28;20081;-84
2022/11/28 11:26:27;;;;;;;69.32;18.48;;;;;;;;;;5048910;28;44027;-84
2022/11/28 11:28:55;;;;;;;79.10;19.58;;;;;;;;;;5049802;28;20050;-84
2022/11/28 11:31:23;;;;;;;70.35;19.45;;;;;;;;;;5044924;28;20050;-84
2022/11/28 11:34:11;;;;;;;75.65;18.92;;;;;;;;;;5044963;28;20054;-84
2022/11/28 11:36:45;;;;;;;79.57;19.40;;;;;;;;;;5043253;28;20038;-84
2022/11/28 11:39:12;;;;;;;70.50;19.00;;;;;;;;;;5054306;28;20053;-84
2022/11/28 11:41:41;;;;;;;54.10;18.13;;;;;;;;;;5051930;28;20041;-84
2022/11/28 11:44:35;;;;;;;62.65;18.15;;;;;;;;;;5056425;28;20112;-84
2022/11/28 11:47:07;;;;;;;56.30;17.55;;;;;;;;;;5054837;28;20076;-84
2022/11/28 11:49:40;;;;;;;94.32;19.25;;;;;;;;;;5053575;28;20072;-84
2022/11/28 11:52:11;;;;;;;65.70;19.48;;;;;;;;;;5054492;28;20054;-84
2022/11/28 11:54:53;;;;;;;103.93;19.67;;;;;;;;;;5055816;28;20053;-84
2022/11/28 11:57:21;;;;;;;85.75;19.15;;;;;;;;;;5050763;28;20048;-84
2022/11/28 12:00:02;;;;;;;77.97;18.55;;;;;;;;;;5049860;28;20068;-84
2022/11/28 12:02:40;;;;;;;60.83;19.00;;;;;;;;;;5057114;28;20060;-84
2022/11/28 12:05:13;;;;;;;61.13;18.98;;;;;;;;;;5059864;28;20046;-84
2022/11/28 12:07:56;;;;;;;52.67;18.20;;;;;;;;;;5053883;28;20054;-84
2022/11/28 12:10:26;;;;;;;84.05;19.20;;;;;;;;;;5054544;28;20077;-84
2022/11/28 12:12:53;;;;;;;69.38;19.27;;;;;;;;;;5063054;28;20049;-85
2022/11/28 12:15:35;;;;;;;64.72;18.00;;;;;;;;;;5051579;28;20140;-84
2022/11/28 12:18:11;;;;;;;66.07;17.67;;;;;;;;;;5054647;28;20092;-84
2022/11/28 12:20:45;;;;;;;64.15;18.42;;;;;;;;;;5055281;28;20049;-84
2022/11/28 12:23:18;;;;;;;71.68;19.30;;;;;;;;;;5050287;28;20053;-84
2022/11/28 12:25:55;;;;;;;66.50;18.25;;;;;;;;;;5055492;28;20072;-84
2022/11/28 12:28:41;;;;;;;72.00;18.55;;;;;;;;;;5048569;28;20124;-84
2022/11/28 12:31:18;;;;;;;67.65;19.13;;;;;;;;;;5050293;28;20049;-84
2022/11/28 12:34:05;;;;;;;51.35;18.38;;;;;;;;;;5063943;28;20060;-84
2022/11/28 12:36:42;;;;;;;67.47;19.38;;;;;;;;;;5053213;28;20045;-84
2022/11/28 12:39:10;;;;;;;76.70;18.83;;;;;;;;;;5049882;28;20508;-84
2022/11/28 12:41:42;;;;;;;68.40;19.00;;;;;;;;;;5055805;28;20077;-85
2022/11/28 12:44:26;;;;;;;58.00;18.88;;;;;;;;;;5049848;28;20114;-86
2022/11/28 12:47:13;;;;;;;56.22;18.15;;;;;;;;;;5055303;28;20133;-86
2022/11/28 12:50:08;;;;;;;108.93;19.42;;;;;;;;;;5049144;28;20049;-86
2022/11/28 12:52:45;;;;;;;87.95;19.75;;;;;;;;;;5060575;28;20072;-86
2022/11/28 12:55:16;;;;;;;84.63;19.75;;;;;;;;;;5057590;28;20050;-86
2022/11/28 12:57:52;;;;;;;104.22;19.65;;;;;;;;;;5066926;28;20057;-85
2022/11/28 13:00:23;;;;;;;68.30;20.20;;;;;;;;;;5052346;28;20064;-85
2022/11/28 13:03:13;;;;;;;69.45;19.27;;;;;;;;;;5064637;28;20084;-86
2022/11/28 13:05:49;;;;;;;68.82;19.27;;;;;;;;;;5052384;28;20892;-85
2022/11/28 13:08:31;;;;;;;90.65;20.38;;;;;;;;;;5070212;28;20175;-85
2022/11/28 13:11:43;;;;;;;;;;;;;;;;;;;;;
2022/11/28 13:14:29;;;;;;;75.95;18.83;;;;;;;;;;5053751;28;20201;-85
2022/11/28 13:17:05;;;;;;;70.88;19.55;;;;;;;;;;5066707;28;20041;-85
2022/11/28 13:20:01;;;;;;;56.30;18.75;;;;;;;;;;5065036;28;20786;-85
2022/11/28 13:22:43;;;;;;;63.58;19.08;;;;;;;;;;5056669;28;20099;-86
2022/11/28 13:25:35;;;;;;;49.17;17.60;;;;;;;;;;5054147;28;20793;-85
2022/11/28 13:28:02;;;;;;;49.75;18.80;;;;;;;;;;5046680;28;20049;-86
2022/11/28 13:31:11;;;;;;;51.80;19.60;;;;;;;;;;5050686;28;20112;-85
2022/11/28 13:33:50;;;;;;;59.03;20.13;;;;;;;;;;5046866;28;20033;-85
2022/11/28 13:36:21;;;;;;;83.82;20.45;;;;;;;;;;5058347;28;20058;-86
2022/11/28 13:39:11;;;;;;;90.07;20.88;;;;;;;;;;5056358;28;20125;-86
2022/11/28 13:41:54;;;;;;;94.25;21.15;;;;;;;;;;5055183;28;20057;-86
2022/11/28 13:44:48;;;;;;;86.55;20.30;;;;;;;;;;5044614;28;20065;-85
2022/11/28 13:47:26;;;;;;;102.85;22.70;;;;;;;;;;5047188;28;20042;-86
2022/11/28 13:50:15;;;;;;;70.60;21.05;;;;;;;;;;5051807;28;20050;-85
2022/11/28 13:55:58;;;;;;;103.32;22.45;;;;;;;;;;5030133;28;20054;-86
2022/11/28 13:58:32;;;;;;;67.00;20.88;;;;;;;;;;5050035;28;20123;-84
2022/11/28 14:01:03;;;;;;;91.88;21.35;;;;;;;;;;5053901;28;20088;-85
2022/11/28 14:03:35;;;;;;;96.90;21.17;;;;;;;;;;5042684;28;20049;-85
2022/11/28 14:06:12;;;;;;;81.72;21.40;;;;;;;;;;5070469;28;20977;-85
2022/11/28 14:09:06;;;;;;;88.30;20.63;;;;;;;;;;5041930;28;20974;-86
2022/11/28 14:12:03;;;;;;;88.43;21.27;;;;;;;;;;5046799;28;20060;-86
2022/11/28 14:14:54;;;;;;;75.13;21.02;;;;;;;;;;5067015;28;20092;-85
2022/11/28 14:17:37;;;;;;;75.90;21.33;;;;;;;;;;5029669;28;20064;-85
2022/11/28 14:20:15;;;;;;;56.83;19.00;;;;;;;;;;5054900;28;20099;-85
2022/11/28 14:22:53;;;;;;;61.50;19.55;;;;;;;;;;5060618;28;20046;-85
2022/11/28 14:25:41;;;;;;;68.53;19.67;;;;;;;;;;5071422;28;20313;-85
2022/11/28 14:28:35;;;;;;;62.53;19.70;;;;;;;;;;5050144;28;20064;-85
2022/11/28 14:31:37;;;;;;;65.80;17.58;;;;;;;;;;5046235;28;20046;-85
2022/11/28 14:34:49;;;;;;;95.93;20.98;;;;;;;;;;5062681;28;20119;-85
2022/11/28 14:37:33;;;;;;;123.24;19.44;;;;;;;;;;4774381;28;8230910;-86
2022/11/28 14:40:02;;;;;;;103.07;21.17;;;;;;;;;;5050739;28;20050;-85
2022/11/28 14:42:29;;;;;;;93.93;21.02;;;;;;;;;;5054871;28;20056;-85
2022/11/28 14:45:39;;;;;;;103.05;20.20;;;;;;;;;;5078305;28;20507;-85
2022/11/28 14:48:17;;;;;;;72.50;20.05;;;;;;;;;;5052653;28;20113;-85
2022/11/28 14:50:56;;;;;;;104.88;19.23;;;;;;;;;;5053757;28;20053;-86
2022/11/28 14:53:42;;;;;;;67.72;19.20;;;;;;;;;;5061616;28;20550;-85
2022/11/28 14:56:10;;;;;;;76.70;19.73;;;;;;;;;;5056530;28;20141;-85
2022/11/28 14:58:45;;;;;;;70.78;19.05;;;;;;;;;;5057644;28;20056;-86
2022/11/28 15:01:33;;;;;;;78.57;19.85;;;;;;;;;;5053369;28;20870;-85
2022/11/28 15:04:04;;;;;;;65.03;19.58;;;;;;;;;;5051189;28;20041;-85
2022/11/28 15:06:49;;;;;;;;;;;;;;;;;;;;;
2022/11/28 15:09:41;;;;;;;116.25;19.55;;;;;;;;;;5052027;28;20104;-85
2022/11/28 15:12:39;;;;;;;69.15;20.02;;;;;;;;;;5067603;28;20053;-85
2022/11/28 15:15:33;;;;;;;90.45;18.48;;;;;;;;;;5067669;28;20840;-85
2022/11/28 15:18:10;;;;;;;104.63;19.05;;;;;;;;;;5056021;28;20052;-85
2022/11/28 15:20:52;;;;;;;153.65;18.90;;;;;;;;;;5054022;28;20053;-85